Řízení letového provozu České republiky  
Aktualizace dat:  17.04.2021 19:45:25 UTC English version
   METEO Zobrazení stránky:  17.04.2021 19:46:47 UTC  
vysvětlivky
METAR EDDB 171920Z 06010KT 9999 -RA SCT047 09/07 Q1020 NOSIG=
METAR EDDC 171920Z 23002KT 9999 SCT028 BKN032 07/03 Q1020 NOSIG=
METAR EDDE 171920Z 24002KT 9999 -RA FEW020 BKN030 06/01 Q1021 NOSIG=
METAR EDDF 171920Z 02005KT 360V060 9999 FEW047 09/M01 Q1022 NOSIG=
METAR EDDM 171920Z 02003KT 330V080 9999 OVC035 05/00 Q1019 NOSIG=
METAR EDDN 171920Z 33004KT 9999 -RA BKN031 04/02 Q1021 NOSIG=
METAR EDDP 171920Z 27004KT 9999 VCSH BKN035CB 08/05 Q1020 NOSIG=
METAR EDQM NIL
METAR EPBY 171930Z VRB02KT 9999 FEW028 SCT041 08/07 Q1020=
METAR EPGD 171930Z 32003KT 290V360 CAVOK 05/03 Q1021=
METAR EPKK 171930Z 22002KT 2000 BR SCT004 BKN006 04/04 Q1019=
METAR EPKT 171930Z 26003KT 1200 R27/2000N BR BKN001 OVC003 04/04 Q1019=
METAR EPLL 171930Z 25004KT 3000 BR FEW003 SCT015 BKN022 06/06 Q1019=
METAR EPPO 171930Z 12004KT 9000 BKN018 08/06 Q1020=
METAR EPRZ 171930Z 10002KT 9999 BKN033 04/03 Q1019=
METAR EPWA 171930Z 12002KT 9999 MIFG NSC 05/05 Q1019 BECMG 3000 BR=
METAR EPWR 171930Z 26003KT 9999 OVC015 06/05 Q1020=
METAR LHBP 171930Z 35002KT CAVOK 05/01 Q1017 NOSIG=
METAR LHSM 171915Z AUTO 02009KT 350V050 8000 OVC047 08/02 Q1018=
METAR LKBC 171930Z AUTO VRB02KT 9999 -RA OVC014 03/01 Q1020=
METAR LKCV 171930Z 25003KT 9999 OVC026 04/02 Q1020 NOSIG RMK BLU BLU=
METAR LKKB 171930Z 23004KT 9999 OVC020 04/02 Q1020 NOSIG RMK WHT WHT=
METAR LKKU NIL
METAR LKKV 171900Z VRB01KT 7000 SCT009 OVC013 02/00 Q1019 RMK REG QNH 1017=
METAR LKLN 171930Z AUTO 00000KT 4100 -RA BR OVC017 03/03 Q1021=
METAR LKMT 171930Z 02002KT 7000 OVC011 05/04 Q1020 NOSIG RMK REG QNH 1017=
METAR LKNA 171930Z 32007KT 6000 -RA BKN015 OVC021 03/01 Q1019 NOSIG RMK GRN GRN=
METAR LKPD 171930Z 26004KT 9999 SCT026 OVC033 04/03 Q1020 NOSIG RMK BLU BLU=
METAR LKPJ 171930Z AUTO 06002KT 9999 OVC025 06/03 Q1020=
METAR LKPR 171930Z 23004KT 9999 SCT017 OVC030 03/02 Q1020 NOSIG RMK REG QNH 1017=
METAR LKTB 171930Z 35004KT 9999 OVC029 06/01 Q1019 NOSIG RMK REG QNH 1017=
METAR LKVO NIL
METAR LOWI 171920Z AUTO 08004KT 030V120 9999 FEW036 SCT050 BKN080 06/M00 Q1018=
METAR LOWL 171920Z AUTO VRB01KT 9999 FEW044 BKN048 07/02 Q1019 NOSIG=
METAR LOWS 171920Z VRB02KT 9999 FEW025 BKN035 05/02 Q1019 NOSIG=
METAR LOWW 171920Z 33008KT 9999 SCT035 BKN048 06/01 Q1019 NOSIG=
METAR LZIB 171930Z 33007KT 9999 BKN048 07/02 Q1019=
METAR LZKZ 171930Z 36008KT CAVOK 06/03 Q1018=
METAR LZMC NIL
METAR LZPP 171930Z 33005KT 9999 BKN045 07/02 Q1018=
METAR LZSL NIL
METAR LZTT 171930Z 03004KT 9999 OVC019 03/01 Q1017=
METAR LZZI 171930Z 02005KT 350V050 9999 OVC028 05/01 Q1018=